sensor_id;sensor_type;location;lat;lon;timestamp;pressure;altitude;pressure_sealevel;temperature;humidity
84703;BME280;74927;50.988;11.318;2023-12-29T00:00:25;98782.53;;;7.85;71.87
84703;BME280;74927;50.988;11.318;2023-12-29T00:02:51;98792.28;;;8.00;71.22
84703;BME280;74927;50.988;11.318;2023-12-29T00:05:17;98788.81;;;8.01;71.15
84703;BME280;74927;50.988;11.318;2023-12-29T00:07:42;98784.44;;;7.94;71.98
84703;BME280;74927;50.988;11.318;2023-12-29T00:10:08;98778.63;;;8.10;71.66
84703;BME280;74927;50.988;11.318;2023-12-29T00:12:33;98763.97;;;8.11;70.47
84703;BME280;74927;50.988;11.318;2023-12-29T00:14:59;98756.97;;;8.05;70.63
84703;BME280;74927;50.988;11.318;2023-12-29T00:17:25;98751.84;;;8.10;71.34
84703;BME280;74927;50.988;11.318;2023-12-29T00:19:50;98750.28;;;8.20;69.62
84703;BME280;74927;50.988;11.318;2023-12-29T00:22:16;98749.31;;;8.14;70.63
84703;BME280;74927;50.988;11.318;2023-12-29T00:24:41;98745.81;;;8.09;70.09
84703;BME280;74927;50.988;11.318;2023-12-29T00:27:07;98738.91;;;8.10;70.53
84703;BME280;74927;50.988;11.318;2023-12-29T00:29:32;98740.34;;;7.91;71.59
84703;BME280;74927;50.988;11.318;2023-12-29T00:31:58;98737.81;;;7.94;71.38
84703;BME280;74927;50.988;11.318;2023-12-29T00:34:25;98730.06;;;7.94;70.76
84703;BME280;74927;50.988;11.318;2023-12-29T00:36:51;98729.34;;;8.04;70.47
84703;BME280;74927;50.988;11.318;2023-12-29T00:39:16;98721.47;;;7.98;70.37
84703;BME280;74927;50.988;11.318;2023-12-29T00:41:42;98730.94;;;7.97;71.04
84703;BME280;74927;50.988;11.318;2023-12-29T00:44:07;98713.78;;;8.04;69.57
84703;BME280;74927;50.988;11.318;2023-12-29T00:46:33;98708.50;;;7.96;69.94
84703;BME280;74927;50.988;11.318;2023-12-29T00:48:59;98696.44;;;7.98;69.71
84703;BME280;74927;50.988;11.318;2023-12-29T00:51:24;98696.41;;;7.94;70.48
84703;BME280;74927;50.988;11.318;2023-12-29T00:53:50;98684.31;;;7.94;69.66
84703;BME280;74927;50.988;11.318;2023-12-29T00:56:15;98700.72;;;7.95;69.91
84703;BME280;74927;50.988;11.318;2023-12-29T00:58:40;98699.97;;;8.04;69.31
84703;BME280;74927;50.988;11.318;2023-12-29T01:01:07;98695.63;;;8.01;69.99
84703;BME280;74927;50.988;11.318;2023-12-29T01:03:37;98691.25;;;7.97;69.40
84703;BME280;74927;50.988;11.318;2023-12-29T01:06:03;98690.59;;;8.12;68.96
84703;BME280;74927;50.988;11.318;2023-12-29T01:08:28;98689.72;;;8.10;69.44
84703;BME280;74927;50.988;11.318;2023-12-29T01:10:54;98692.25;;;8.07;69.73
84703;BME280;74927;50.988;11.318;2023-12-29T01:13:19;98684.59;;;8.16;68.92
84703;BME280;74927;50.988;11.318;2023-12-29T01:15:45;98681.09;;;8.12;69.80
84703;BME280;74927;50.988;11.318;2023-12-29T01:18:11;98666.41;;;8.10;69.40
84703;BME280;74927;50.988;11.318;2023-12-29T01:20:37;98679.41;;;8.13;69.71
84703;BME280;74927;50.988;11.318;2023-12-29T01:23:04;98683.88;;;8.25;68.63
84703;BME280;74927;50.988;11.318;2023-12-29T01:25:30;98682.16;;;8.27;68.20
84703;BME280;74927;50.988;11.318;2023-12-29T01:27:55;98678.75;;;8.28;68.78
84703;BME280;74927;50.988;11.318;2023-12-29T01:30:21;98669.16;;;8.22;69.00
84703;BME280;74927;50.988;11.318;2023-12-29T01:32:46;98687.16;;;8.14;69.29
84703;BME280;74927;50.988;11.318;2023-12-29T01:35:12;98669.81;;;8.06;69.80
84703;BME280;74927;50.988;11.318;2023-12-29T01:37:37;98676.78;;;8.11;69.24
84703;BME280;74927;50.988;11.318;2023-12-29T01:40:03;98664.66;;;8.07;70.64
84703;BME280;74927;50.988;11.318;2023-12-29T01:42:28;98680.19;;;8.07;69.95
84703;BME280;74927;50.988;11.318;2023-12-29T01:44:54;98677.69;;;8.15;69.63
84703;BME280;74927;50.988;11.318;2023-12-29T01:47:20;98666.56;;;8.21;69.57
84703;BME280;74927;50.988;11.318;2023-12-29T01:49:48;98671.78;;;8.25;69.64
84703;BME280;74927;50.988;11.318;2023-12-29T01:52:16;98671.75;;;8.24;69.14
84703;BME280;74927;50.988;11.318;2023-12-29T01:54:42;98674.44;;;8.31;68.48
84703;BME280;74927;50.988;11.318;2023-12-29T01:57:09;98662.31;;;8.27;69.35
84703;BME280;74927;50.988;11.318;2023-12-29T01:59:37;98664.91;;;8.29;69.44
84703;BME280;74927;50.988;11.318;2023-12-29T02:02:03;98660.69;;;8.34;68.83
84703;BME280;74927;50.988;11.318;2023-12-29T02:04:30;98653.66;;;8.27;68.56
84703;BME280;74927;50.988;11.318;2023-12-29T02:06:55;98657.06;;;8.23;69.32
84703;BME280;74927;50.988;11.318;2023-12-29T02:09:21;98655.31;;;8.22;68.76
84703;BME280;74927;50.988;11.318;2023-12-29T02:11:50;98661.41;;;8.22;68.81
84703;BME280;74927;50.988;11.318;2023-12-29T02:14:16;98661.38;;;8.21;69.03
84703;BME280;74927;50.988;11.318;2023-12-29T02:22:02;98660.41;;;8.14;69.41
84703;BME280;74927;50.988;11.318;2023-12-29T02:24:28;98665.56;;;8.12;69.79
84703;BME280;74927;50.988;11.318;2023-12-29T02:29:43;98667.44;;;8.23;69.59
84703;BME280;74927;50.988;11.318;2023-12-29T02:32:11;98663.19;;;8.28;68.26
84703;BME280;74927;50.988;11.318;2023-12-29T02:34:40;98651.16;;;8.33;68.77
84703;BME280;74927;50.988;11.318;2023-12-29T02:37:08;98652.84;;;8.31;68.65
84703;BME280;74927;50.988;11.318;2023-12-29T02:39:34;98647.97;;;8.51;66.93
84703;BME280;74927;50.988;11.318;2023-12-29T02:42:00;98640.88;;;8.41;67.06
84703;BME280;74927;50.988;11.318;2023-12-29T02:44:25;98641.66;;;8.35;66.65
84703;BME280;74927;50.988;11.318;2023-12-29T02:46:51;98632.22;;;8.38;66.95
84703;BME280;74927;50.988;11.318;2023-12-29T02:49:16;98631.34;;;8.36;67.12
84703;BME280;74927;50.988;11.318;2023-12-29T02:51:42;98634.75;;;8.34;67.29
84703;BME280;74927;50.988;11.318;2023-12-29T02:54:07;98618.56;;;8.49;65.56
84703;BME280;74927;50.988;11.318;2023-12-29T02:56:33;98621.13;;;8.47;66.72
84703;BME280;74927;50.988;11.318;2023-12-29T02:58:59;98626.16;;;8.36;67.22
84703;BME280;74927;50.988;11.318;2023-12-29T03:01:25;98618.56;;;8.49;65.98
84703;BME280;74927;50.988;11.318;2023-12-29T03:03:50;98611.59;;;8.46;66.54
84703;BME280;74927;50.988;11.318;2023-12-29T03:06:16;98617.63;;;8.44;67.62
84703;BME280;74927;50.988;11.318;2023-12-29T03:08:41;98610.69;;;8.43;68.20
84703;BME280;74927;50.988;11.318;2023-12-29T03:11:07;98605.53;;;8.43;67.76
84703;BME280;74927;50.988;11.318;2023-12-29T03:13:32;98603.03;;;8.52;67.62
84703;BME280;74927;50.988;11.318;2023-12-29T03:15:58;98615.19;;;8.57;67.10
84703;BME280;74927;50.988;11.318;2023-12-29T03:18:23;98616.13;;;8.64;66.32
84703;BME280;74927;50.988;11.318;2023-12-29T03:20:48;98616.94;;;8.59;67.53
84703;BME280;74927;50.988;11.318;2023-12-29T03:23:14;98602.34;;;8.67;66.88
84703;BME280;74927;50.988;11.318;2023-12-29T03:25:39;98602.38;;;8.70;67.04
84703;BME280;74927;50.988;11.318;2023-12-29T03:28:05;98603.25;;;8.72;66.79
84703;BME280;74927;50.988;11.318;2023-12-29T03:30:30;98592.94;;;8.75;66.80
84703;BME280;74927;50.988;11.318;2023-12-29T03:32:57;98592.94;;;8.77;67.25
84703;BME280;74927;50.988;11.318;2023-12-29T03:35:22;98599.81;;;8.73;67.58
84703;BME280;74927;50.988;11.318;2023-12-29T03:37:48;98611.97;;;8.80;66.43
84703;BME280;74927;50.988;11.318;2023-12-29T03:40:13;98607.69;;;8.81;66.93
84703;BME280;74927;50.988;11.318;2023-12-29T03:42:39;98591.19;;;8.75;66.79
84703;BME280;74927;50.988;11.318;2023-12-29T03:45:05;98600.72;;;8.75;67.27
84703;BME280;74927;50.988;11.318;2023-12-29T03:47:31;98606.84;;;8.85;67.05
84703;BME280;74927;50.988;11.318;2023-12-29T03:49:57;98597.31;;;8.82;66.17
84703;BME280;74927;50.988;11.318;2023-12-29T03:52:23;98602.44;;;8.78;66.05
84703;BME280;74927;50.988;11.318;2023-12-29T03:54:48;98602.50;;;8.84;66.58
84703;BME280;74927;50.988;11.318;2023-12-29T03:57:14;98595.53;;;8.75;67.36
84703;BME280;74927;50.988;11.318;2023-12-29T03:59:39;98591.06;;;8.62;67.02
84703;BME280;74927;50.988;11.318;2023-12-29T04:02:04;98586.00;;;8.74;65.90
84703;BME280;74927;50.988;11.318;2023-12-29T04:04:30;98588.66;;;8.79;65.15
84703;BME280;74927;50.988;11.318;2023-12-29T04:06:55;98574.03;;;8.87;64.28
84703;BME280;74927;50.988;11.318;2023-12-29T04:09:21;98580.84;;;8.80;65.54
84703;BME280;74927;50.988;11.318;2023-12-29T04:11:46;98586.00;;;8.74;65.31
84703;BME280;74927;50.988;11.318;2023-12-29T04:14:12;98582.53;;;8.72;65.74
84703;BME280;74927;50.988;11.318;2023-12-29T04:16:38;98575.50;;;8.60;66.15
84703;BME280;74927;50.988;11.318;2023-12-29T04:19:04;98566.94;;;8.67;66.01
84703;BME280;74927;50.988;11.318;2023-12-29T04:21:29;98575.47;;;8.59;65.46
84703;BME280;74927;50.988;11.318;2023-12-29T04:23:54;98571.13;;;8.57;65.45
84703;BME280;74927;50.988;11.318;2023-12-29T04:26:20;98571.31;;;8.73;65.15
84703;BME280;74927;50.988;11.318;2023-12-29T04:28:45;98576.41;;;8.64;66.02
84703;BME280;74927;50.988;11.318;2023-12-29T04:31:11;98575.59;;;8.69;64.92
84703;BME280;74927;50.988;11.318;2023-12-29T04:33:36;98573.75;;;8.61;64.99
84703;BME280;74927;50.988;11.318;2023-12-29T04:36:02;98568.56;;;8.56;65.27
84703;BME280;74927;50.988;11.318;2023-12-29T04:38:27;98567.66;;;8.55;64.93
84703;BME280;74927;50.988;11.318;2023-12-29T04:40:53;98560.78;;;8.59;65.62
84703;BME280;74927;50.988;11.318;2023-12-29T04:43:18;98557.38;;;8.65;65.02
84703;BME280;74927;50.988;11.318;2023-12-29T04:45:44;98544.53;;;8.75;64.51
84703;BME280;74927;50.988;11.318;2023-12-29T04:48:09;98535.00;;;8.74;64.27
84703;BME280;74927;50.988;11.318;2023-12-29T04:50:35;98545.34;;;8.70;64.93
84703;BME280;74927;50.988;11.318;2023-12-29T04:53:00;98527.25;;;8.73;65.16
84703;BME280;74927;50.988;11.318;2023-12-29T04:55:26;98536.75;;;8.75;65.57
84703;BME280;74927;50.988;11.318;2023-12-29T04:57:51;98541.88;;;8.68;65.85
84703;BME280;74927;50.988;11.318;2023-12-29T05:00:17;98534.94;;;8.65;65.30
84703;BME280;74927;50.988;11.318;2023-12-29T05:02:42;98565.16;;;8.65;64.78
84703;BME280;74927;50.988;11.318;2023-12-29T05:05:08;98560.84;;;8.64;65.01
84703;BME280;74927;50.988;11.318;2023-12-29T05:07:34;98585.91;;;8.66;64.76
84703;BME280;74927;50.988;11.318;2023-12-29T05:09:59;98570.38;;;8.66;65.68
84703;BME280;74927;50.988;11.318;2023-12-29T05:12:24;98567.06;;;8.81;64.32
84703;BME280;74927;50.988;11.318;2023-12-29T05:14:50;98571.41;;;8.85;63.60
84703;BME280;74927;50.988;11.318;2023-12-29T05:17:15;98561.06;;;8.87;63.70
84703;BME280;74927;50.988;11.318;2023-12-29T05:19:41;98568.03;;;8.94;63.92
84703;BME280;74927;50.988;11.318;2023-12-29T05:22:06;98562.78;;;8.86;63.33
84703;BME280;74927;50.988;11.318;2023-12-29T05:24:32;98556.75;;;8.89;63.64
84703;BME280;74927;50.988;11.318;2023-12-29T05:26:57;98573.91;;;8.76;64.42
84703;BME280;74927;50.988;11.318;2023-12-29T05:29:23;98573.00;;;8.72;65.07
84703;BME280;74927;50.988;11.318;2023-12-29T05:31:48;98579.88;;;8.66;65.23
84703;BME280;74927;50.988;11.318;2023-12-29T05:34:14;98566.03;;;8.67;64.65
84703;BME280;74927;50.988;11.318;2023-12-29T05:36:39;98568.53;;;8.57;64.63
84703;BME280;74927;50.988;11.318;2023-12-29T05:39:05;98568.59;;;8.61;64.89
84703;BME280;74927;50.988;11.318;2023-12-29T05:41:31;98563.34;;;8.57;65.19
84703;BME280;74927;50.988;11.318;2023-12-29T05:43:56;98556.44;;;8.56;65.04
84703;BME280;74927;50.988;11.318;2023-12-29T05:46:23;98549.50;;;8.52;65.72
84703;BME280;74927;50.988;11.318;2023-12-29T05:48:49;98545.13;;;8.45;65.02
84703;BME280;74927;50.988;11.318;2023-12-29T05:51:16;98549.34;;;8.40;65.50
84703;BME280;74927;50.988;11.318;2023-12-29T05:53:42;98553.78;;;8.52;65.00
84703;BME280;74927;50.988;11.318;2023-12-29T05:56:11;98552.84;;;8.44;65.20
84703;BME280;74927;50.988;11.318;2023-12-29T05:58:37;98563.97;;;8.36;66.63
84703;BME280;74927;50.988;11.318;2023-12-29T06:01:02;98555.34;;;8.36;66.53
84703;BME280;74927;50.988;11.318;2023-12-29T06:03:28;98545.75;;;8.27;66.52
84703;BME280;74927;50.988;11.318;2023-12-29T06:05:54;98533.75;;;8.38;65.63
84703;BME280;74927;50.988;11.318;2023-12-29T06:08:19;98531.28;;;8.45;66.42
84703;BME280;74927;50.988;11.318;2023-12-29T06:10:45;98532.16;;;8.48;65.82
84703;BME280;74927;50.988;11.318;2023-12-29T06:13:10;98524.50;;;8.59;65.31
84703;BME280;74927;50.988;11.318;2023-12-29T06:15:36;98526.06;;;8.42;65.59
84703;BME280;74927;50.988;11.318;2023-12-29T06:18:02;98531.13;;;8.32;66.07
84703;BME280;74927;50.988;11.318;2023-12-29T06:20:28;98552.59;;;8.24;67.36
84703;BME280;74927;50.988;11.318;2023-12-29T06:22:54;98562.09;;;8.23;66.76
84703;BME280;74927;50.988;11.318;2023-12-29T06:25:19;98562.00;;;8.15;68.20
84703;BME280;74927;50.988;11.318;2023-12-29T06:27:45;98576.63;;;8.10;68.05
84703;BME280;74927;50.988;11.318;2023-12-29T06:30:11;98581.84;;;8.13;67.64
84703;BME280;74927;50.988;11.318;2023-12-29T06:32:37;98585.38;;;8.20;67.25
84703;BME280;74927;50.988;11.318;2023-12-29T06:35:03;98579.56;;;8.40;67.69
84703;BME280;74927;50.988;11.318;2023-12-29T06:37:29;98577.84;;;8.40;66.72
84703;BME280;74927;50.988;11.318;2023-12-29T06:39:54;98583.13;;;8.45;67.73
84703;BME280;74927;50.988;11.318;2023-12-29T06:42:20;98587.38;;;8.43;67.98
84703;BME280;74927;50.988;11.318;2023-12-29T06:44:46;98596.19;;;8.57;67.19
84703;BME280;74927;50.988;11.318;2023-12-29T06:47:11;98597.03;;;8.54;67.84
84703;BME280;74927;50.988;11.318;2023-12-29T06:49:38;98596.22;;;8.59;66.89
84703;BME280;74927;50.988;11.318;2023-12-29T06:52:04;98586.78;;;8.67;67.25
84703;BME280;74927;50.988;11.318;2023-12-29T06:54:30;98585.06;;;8.66;66.81
84703;BME280;74927;50.988;11.318;2023-12-29T06:56:55;98583.31;;;8.65;67.11
84703;BME280;74927;50.988;11.318;2023-12-29T06:59:22;98594.47;;;8.59;67.31
84703;BME280;74927;50.988;11.318;2023-12-29T07:01:47;98578.03;;;8.57;68.16
84703;BME280;74927;50.988;11.318;2023-12-29T07:04:13;98575.78;;;8.91;67.13
84703;BME280;74927;50.988;11.318;2023-12-29T07:06:39;98580.94;;;8.89;67.24
84703;BME280;74927;50.988;11.318;2023-12-29T07:09:04;98583.56;;;8.91;66.43
84703;BME280;74927;50.988;11.318;2023-12-29T07:11:30;98591.41;;;8.99;67.20
84703;BME280;74927;50.988;11.318;2023-12-29T07:13:56;98599.13;;;8.92;67.85
84703;BME280;74927;50.988;11.318;2023-12-29T07:16:22;98613.78;;;8.89;68.12
84703;BME280;74927;50.988;11.318;2023-12-29T07:18:48;98603.53;;;9.00;67.72
84703;BME280;74927;50.988;11.318;2023-12-29T07:21:14;98600.09;;;9.02;66.84
84703;BME280;74927;50.988;11.318;2023-12-29T07:23:40;98593.19;;;9.06;66.68
84703;BME280;74927;50.988;11.318;2023-12-29T07:26:06;98591.50;;;9.09;67.62
84703;BME280;74927;50.988;11.318;2023-12-29T07:28:32;98592.34;;;9.07;67.29
84703;BME280;74927;50.988;11.318;2023-12-29T07:30:57;98588.91;;;9.09;67.73
84703;BME280;74927;50.988;11.318;2023-12-29T07:33:23;98585.47;;;9.12;67.95
84703;BME280;74927;50.988;11.318;2023-12-29T07:35:49;98594.97;;;9.10;68.11
84703;BME280;74927;50.988;11.318;2023-12-29T07:38:15;98584.69;;;9.21;67.86
84703;BME280;74927;50.988;11.318;2023-12-29T07:40:41;98581.31;;;9.29;67.60
84703;BME280;74927;50.988;11.318;2023-12-29T07:43:06;98573.47;;;9.26;67.10
84703;BME280;74927;50.988;11.318;2023-12-29T07:45:32;98575.16;;;9.21;68.08
84703;BME280;74927;50.988;11.318;2023-12-29T07:47:57;98574.25;;;9.14;68.15
84703;BME280;74927;50.988;11.318;2023-12-29T07:50:23;98576.88;;;9.19;67.82
84703;BME280;74927;50.988;11.318;2023-12-29T07:52:48;98569.09;;;9.19;67.23
84703;BME280;74927;50.988;11.318;2023-12-29T07:55:14;98566.47;;;9.14;67.94
84703;BME280;74927;50.988;11.318;2023-12-29T07:57:42;98576.03;;;9.20;67.47
84703;BME280;74927;50.988;11.318;2023-12-29T08:00:08;98571.72;;;9.21;67.84
84703;BME280;74927;50.988;11.318;2023-12-29T08:02:34;98577.72;;;9.17;68.82
84703;BME280;74927;50.988;11.318;2023-12-29T08:05:00;98586.44;;;9.26;67.69
84703;BME280;74927;50.988;11.318;2023-12-29T08:07:26;98566.56;;;9.28;67.70
84703;BME280;74927;50.988;11.318;2023-12-29T08:09:51;98578.69;;;9.29;68.37
84703;BME280;74927;50.988;11.318;2023-12-29T08:12:17;98566.63;;;9.38;68.23
84703;BME280;74927;50.988;11.318;2023-12-29T08:14:42;98571.00;;;9.42;68.18
84703;BME280;74927;50.988;11.318;2023-12-29T08:17:07;98589.16;;;9.39;67.22
84703;BME280;74927;50.988;11.318;2023-12-29T08:19:37;98585.72;;;9.43;67.54
84703;BME280;74927;50.988;11.318;2023-12-29T08:22:02;98589.13;;;9.37;67.82
84703;BME280;74927;50.988;11.318;2023-12-29T08:24:28;98570.88;;;9.26;69.09
84703;BME280;74927;50.988;11.318;2023-12-29T08:26:53;98586.47;;;9.28;68.30
84703;BME280;74927;50.988;11.318;2023-12-29T08:29:19;98589.91;;;9.25;68.90
84703;BME280;74927;50.988;11.318;2023-12-29T08:31:45;98589.91;;;9.25;67.79
84703;BME280;74927;50.988;11.318;2023-12-29T08:34:10;98592.59;;;9.38;68.12
84703;BME280;74927;50.988;11.318;2023-12-29T08:36:36;98595.19;;;9.38;67.52
84703;BME280;74927;50.988;11.318;2023-12-29T08:39:02;98602.19;;;9.48;68.03
84703;BME280;74927;50.988;11.318;2023-12-29T08:41:27;98603.88;;;9.46;67.98
84703;BME280;74927;50.988;11.318;2023-12-29T08:43:53;98594.41;;;9.48;67.96
84703;BME280;74927;50.988;11.318;2023-12-29T08:46:18;98590.13;;;9.54;67.80
84703;BME280;74927;50.988;11.318;2023-12-29T08:48:44;98585.81;;;9.58;66.48
84703;BME280;74927;50.988;11.318;2023-12-29T08:51:10;98584.06;;;9.59;67.19
84703;BME280;74927;50.988;11.318;2023-12-29T08:53:35;98575.47;;;9.64;66.96
84703;BME280;74927;50.988;11.318;2023-12-29T08:56:04;98584.97;;;9.59;66.93
84703;BME280;74927;50.988;11.318;2023-12-29T08:58:32;98578.91;;;9.60;66.31
84703;BME280;74927;50.988;11.318;2023-12-29T09:00:57;98584.97;;;9.62;67.46
84703;BME280;74927;50.988;11.318;2023-12-29T09:03:23;98585.00;;;9.67;67.00
84703;BME280;74927;50.988;11.318;2023-12-29T09:05:48;98591.06;;;9.67;66.82
84703;BME280;74927;50.988;11.318;2023-12-29T09:08:14;98588.47;;;9.67;66.18
84703;BME280;74927;50.988;11.318;2023-12-29T09:10:39;98602.34;;;9.72;66.56
84703;BME280;74927;50.988;11.318;2023-12-29T09:13:05;98596.25;;;9.67;67.13
84703;BME280;74927;50.988;11.318;2023-12-29T09:15:30;98596.31;;;9.75;66.24
84703;BME280;74927;50.988;11.318;2023-12-29T09:17:56;98581.63;;;9.79;66.55
84703;BME280;74927;50.988;11.318;2023-12-29T09:20:21;98590.28;;;9.81;66.68
84703;BME280;74927;50.988;11.318;2023-12-29T09:22:47;98587.75;;;9.93;65.23
84703;BME280;74927;50.988;11.318;2023-12-29T09:25:13;98606.75;;;9.89;65.59
84703;BME280;74927;50.988;11.318;2023-12-29T09:27:38;98602.50;;;10.00;65.40
84703;BME280;74927;50.988;11.318;2023-12-29T09:30:04;98599.13;;;10.23;64.45
84703;BME280;74927;50.988;11.318;2023-12-29T09:32:30;98598.34;;;10.31;64.06
84703;BME280;74927;50.988;11.318;2023-12-29T09:34:55;98584.53;;;10.42;63.41
84703;BME280;74927;50.988;11.318;2023-12-29T09:37:22;98595.81;;;10.58;62.98
84703;BME280;74927;50.988;11.318;2023-12-29T09:39:47;98589.78;;;10.71;62.45
84703;BME280;74927;50.988;11.318;2023-12-29T09:42:19;98582.00;;;10.79;62.35
84703;BME280;74927;50.988;11.318;2023-12-29T09:44:49;98565.53;;;10.87;61.76
84703;BME280;74927;50.988;11.318;2023-12-29T09:47:17;98578.53;;;10.83;61.23
84703;BME280;74927;50.988;11.318;2023-12-29T09:49:45;98579.41;;;10.83;60.73
84703;BME280;74927;50.988;11.318;2023-12-29T09:52:12;98566.41;;;11.26;60.33
84703;BME280;74927;50.988;11.318;2023-12-29T09:54:39;98569.88;;;11.35;59.35
84703;BME280;74927;50.988;11.318;2023-12-29T09:57:05;98567.28;;;11.47;58.73
84703;BME280;74927;50.988;11.318;2023-12-29T09:59:34;98554.19;;;11.81;58.68
84703;BME280;74927;50.988;11.318;2023-12-29T10:02:04;98561.13;;;11.76;58.60
84703;BME280;74927;50.988;11.318;2023-12-29T10:04:30;98551.53;;;11.99;57.77
84703;BME280;74927;50.988;11.318;2023-12-29T10:06:56;98552.41;;;11.77;58.58
84703;BME280;74927;50.988;11.318;2023-12-29T10:09:25;98546.28;;;12.05;57.89
84703;BME280;74927;50.988;11.318;2023-12-29T10:11:53;98550.72;;;11.63;58.46
84703;BME280;74927;50.988;11.318;2023-12-29T10:14:24;98545.47;;;11.94;58.34
84703;BME280;74927;50.988;11.318;2023-12-29T10:16:55;98547.25;;;11.66;58.78
84703;BME280;74927;50.988;11.318;2023-12-29T10:19:41;98559.38;;;11.78;57.92
84703;BME280;74927;50.988;11.318;2023-12-29T10:24:50;98549.91;;;11.38;60.11
84703;BME280;74927;50.988;11.318;2023-12-29T10:27:16;98547.34;;;11.07;61.65
84703;BME280;74927;50.988;11.318;2023-12-29T10:29:41;98532.59;;;10.97;62.11
84703;BME280;74927;50.988;11.318;2023-12-29T10:32:07;98545.59;;;10.86;62.55
84703;BME280;74927;50.988;11.318;2023-12-29T10:34:32;98543.00;;;11.17;62.71
84703;BME280;74927;50.988;11.318;2023-12-29T10:36:59;98530.78;;;11.48;60.95
84703;BME280;74927;50.988;11.318;2023-12-29T10:39:27;98538.59;;;11.62;61.23
84703;BME280;74927;50.988;11.318;2023-12-29T10:42:07;98538.63;;;11.41;61.89
84703;BME280;74927;50.988;11.318;2023-12-29T10:44:34;98534.31;;;11.31;62.60
84703;BME280;74927;50.988;11.318;2023-12-29T10:47:08;98539.50;;;11.41;62.26
84703;BME280;74927;50.988;11.318;2023-12-29T10:49:34;98516.94;;;11.45;61.71
84703;BME280;74927;50.988;11.318;2023-12-29T10:51:59;98523.00;;;11.47;61.70
84703;BME280;74927;50.988;11.318;2023-12-29T10:54:25;98521.22;;;11.64;60.73
84703;BME280;74927;50.988;11.318;2023-12-29T10:57:02;98532.53;;;11.50;61.32
84703;BME280;74927;50.988;11.318;2023-12-29T10:59:30;98524.75;;;11.22;62.78
84703;BME280;74927;50.988;11.318;2023-12-29T11:01:56;98518.69;;;11.23;62.44
84703;BME280;74927;50.988;11.318;2023-12-29T11:04:22;98526.47;;;11.35;61.95
84703;BME280;74927;50.988;11.318;2023-12-29T11:06:48;98523.00;;;11.32;62.23
84703;BME280;74927;50.988;11.318;2023-12-29T11:09:32;98527.34;;;11.53;61.10
84703;BME280;74927;50.988;11.318;2023-12-29T11:12:03;98520.41;;;11.33;62.43
84703;BME280;74927;50.988;11.318;2023-12-29T11:14:28;98535.19;;;11.05;63.31
84703;BME280;74927;50.988;11.318;2023-12-29T11:16:55;98514.38;;;11.14;63.17
84703;BME280;74927;50.988;11.318;2023-12-29T11:19:21;98523.03;;;11.01;62.68
84703;BME280;74927;50.988;11.318;2023-12-29T11:21:49;98532.59;;;10.93;63.83
84703;BME280;74927;50.988;11.318;2023-12-29T11:24:17;98532.59;;;10.80;64.53
84703;BME280;74927;50.988;11.318;2023-12-29T11:26:43;98523.91;;;10.84;63.93
84703;BME280;74927;50.988;11.318;2023-12-29T11:29:09;98517.00;;;11.02;63.63
84703;BME280;74927;50.988;11.318;2023-12-29T11:31:37;98522.16;;;11.05;63.49
84703;BME280;74927;50.988;11.318;2023-12-29T11:34:15;98520.44;;;11.21;63.34
84703;BME280;74927;50.988;11.318;2023-12-29T11:36:45;98511.75;;;11.25;62.91
84703;BME280;74927;50.988;11.318;2023-12-29T11:39:23;98506.47;;;11.62;62.23
84703;BME280;74927;50.988;11.318;2023-12-29T11:42:26;98510.84;;;11.44;62.44
84703;BME280;74927;50.988;11.318;2023-12-29T11:44:43;98519.56;;;11.33;63.25
84703;BME280;74927;50.988;11.318;2023-12-29T11:47:35;98512.63;;;11.16;63.91
84703;BME280;74927;50.988;11.318;2023-12-29T11:50:02;98515.25;;;11.01;63.91
84703;BME280;74927;50.988;11.318;2023-12-29T11:52:38;98523.94;;;10.91;63.97
84703;BME280;74927;50.988;11.318;2023-12-29T11:55:14;98513.50;;;10.80;64.14
84703;BME280;74927;50.988;11.318;2023-12-29T11:57:40;98515.25;;;10.78;64.71
84703;BME280;74927;50.988;11.318;2023-12-29T12:00:07;98502.25;;;10.78;64.39
84703;BME280;74927;50.988;11.318;2023-12-29T12:02:33;98498.75;;;10.71;65.33
84703;BME280;74927;50.988;11.318;2023-12-29T12:04:59;98497.03;;;10.76;65.03
84703;BME280;74927;50.988;11.318;2023-12-29T12:09:50;98503.09;;;10.70;65.03
84703;BME280;74927;50.988;11.318;2023-12-29T12:12:51;98492.69;;;10.75;65.24
84703;BME280;74927;50.988;11.318;2023-12-29T12:18:01;98489.22;;;10.82;64.99
84703;BME280;74927;50.988;11.318;2023-12-29T12:20:32;98490.97;;;10.79;64.71
84703;BME280;74927;50.988;11.318;2023-12-29T12:23:00;98500.50;;;10.83;64.86
84703;BME280;74927;50.988;11.318;2023-12-29T12:25:27;98504.84;;;10.79;64.26
84703;BME280;74927;50.988;11.318;2023-12-29T12:27:56;98482.31;;;10.80;65.34
84703;BME280;74927;50.988;11.318;2023-12-29T12:30:22;98502.25;;;10.76;65.02
84703;BME280;74927;50.988;11.318;2023-12-29T12:32:58;98496.19;;;10.68;65.91
84703;BME280;74927;50.988;11.318;2023-12-29T12:35:24;98487.50;;;10.70;65.65
84703;BME280;74927;50.988;11.318;2023-12-29T12:40:38;98484.91;;;10.64;66.11
84703;BME280;74927;50.988;11.318;2023-12-29T12:43:04;98487.50;;;10.69;66.10
84703;BME280;74927;50.988;11.318;2023-12-29T12:45:33;98485.78;;;10.59;66.43
84703;BME280;74927;50.988;11.318;2023-12-29T12:48:02;98484.03;;;10.59;66.20
84703;BME280;74927;50.988;11.318;2023-12-29T12:50:29;98493.56;;;10.56;66.28
84703;BME280;74927;50.988;11.318;2023-12-29T12:52:56;98484.88;;;10.58;66.91
84703;BME280;74927;50.988;11.318;2023-12-29T12:55:23;98481.41;;;10.58;66.79
84703;BME280;74927;50.988;11.318;2023-12-29T12:57:48;98493.53;;;10.53;66.96
84703;BME280;74927;50.988;11.318;2023-12-29T13:00:14;98488.34;;;10.56;66.99
84703;BME280;74927;50.988;11.318;2023-12-29T13:02:41;98489.22;;;10.52;67.35
84703;BME280;74927;50.988;11.318;2023-12-29T13:05:09;98481.44;;;10.52;66.86
84703;BME280;74927;50.988;11.318;2023-12-29T13:07:36;98488.31;;;10.43;67.83
84703;BME280;74927;50.988;11.318;2023-12-29T13:10:02;98478.81;;;10.48;67.63
84703;BME280;74927;50.988;11.318;2023-12-29T13:12:29;98482.25;;;10.40;68.31